Time;durP1;ratioP1;P1;durP2;ratioP2;P2;SDS_P1;SDS_P2;PMS_P1;PMS_P2;Temp;Humidity;BMP_temperature;BMP_pressure;BME280_temperature;BME280_humidity;BME280_pressure;Samples;Min_cycle;Max_cycle;Signal;HPM_P1;HPM_P2
2023/05/23 00:00:57;;;;;;;24.45;20.25;;;14.40;99.90;;;;;;5090174;28;20054;-71
2023/05/23 00:03:23;;;;;;;29.50;20.77;;;14.40;99.90;;;;;;5103080;28;20043;-71
2023/05/23 00:05:50;;;;;;;25.63;21.05;;;14.30;99.90;;;;;;5139114;27;20043;-71
2023/05/23 00:08:16;;;;;;;24.92;22.30;;;14.40;99.90;;;;;;5065849;28;20131;-71
2023/05/23 00:10:43;;;;;;;22.23;19.83;;;14.40;99.90;;;;;;5133424;27;20067;-70
2023/05/23 00:13:11;;;;;;;25.98;21.17;;;14.40;99.90;;;;;;5085289;28;20405;-71
2023/05/23 00:15:38;;;;;;;25.40;22.15;;;14.40;99.90;;;;;;5086208;28;20043;-71
2023/05/23 00:18:04;;;;;;;22.73;19.48;;;14.30;99.90;;;;;;5099625;28;20065;-71
2023/05/23 00:20:30;;;;;;;21.67;19.00;;;14.30;99.90;;;;;;5084874;28;20115;-71
2023/05/23 00:22:58;;;;;;;21.90;19.20;;;14.30;99.90;;;;;;5102491;27;20200;-71
2023/05/23 00:25:24;;;;;;;25.73;22.23;;;14.30;99.90;;;;;;5115743;27;20764;-71
2023/05/23 00:27:53;;;;;;;23.05;20.73;;;14.30;99.90;;;;;;5120159;27;20050;-71
2023/05/23 00:30:19;;;;;;;30.02;25.73;;;14.20;99.90;;;;;;5097401;28;20048;-71
2023/05/23 00:32:45;;;;;;;25.92;23.27;;;14.20;99.90;;;;;;5082324;28;20043;-71
2023/05/23 00:35:10;;;;;;;31.83;27.40;;;14.20;99.90;;;;;;5101707;27;20092;-71
2023/05/23 00:37:37;;;;;;;31.63;27.25;;;14.20;99.90;;;;;;5069356;28;20047;-71
2023/05/23 00:40:03;;;;;;;31.10;26.90;;;14.20;99.90;;;;;;5068795;28;20120;-71
2023/05/23 00:42:28;;;;;;;28.77;24.75;;;14.20;99.90;;;;;;5084010;28;20036;-71
2023/05/23 00:44:54;;;;;;;35.40;28.67;;;14.20;99.90;;;;;;5105220;28;20054;-71
2023/05/23 00:47:20;;;;;;;35.22;29.90;;;14.20;99.90;;;;;;5101261;28;20050;-71
2023/05/23 00:49:46;;;;;;;31.90;27.38;;;14.20;99.90;;;;;;5106511;28;20039;-72
2023/05/23 00:52:14;;;;;;;35.85;28.20;;;14.20;99.90;;;;;;5068210;28;20047;-71
2023/05/23 00:54:40;;;;;;;37.33;29.27;;;14.20;99.90;;;;;;5121257;27;20054;-72
2023/05/23 00:57:06;;;;;;;37.40;27.00;;;14.20;99.90;;;;;;5082444;28;20077;-71
2023/05/23 00:59:34;;;;;;;34.80;27.80;;;14.20;99.90;;;;;;5117592;27;20101;-71
2023/05/23 01:02:00;;;;;;;25.58;22.85;;;14.10;99.90;;;;;;5085422;28;20063;-72
2023/05/23 01:04:27;;;;;;;28.05;23.58;;;14.10;99.90;;;;;;5087385;28;20040;-71
2023/05/23 01:06:56;;;;;;;26.45;23.13;;;14.10;99.90;;;;;;5067916;28;20498;-71
2023/05/23 01:09:24;;;;;;;28.42;25.27;;;14.10;99.90;;;;;;5118006;27;20882;-72
2023/05/23 01:11:56;;;;;;;30.67;25.40;;;14.10;99.90;;;;;;5082102;28;20465;-71
2023/05/23 01:14:31;;;;;;;29.15;24.67;;;14.10;99.90;;;;;;5119658;27;20069;-71
2023/05/23 01:17:08;;;;;;;31.55;27.75;;;14.00;99.90;;;;;;5098982;28;20108;-71
2023/05/23 01:19:57;;;;;;;29.38;25.73;;;14.00;99.90;;;;;;5078010;28;20044;-71
2023/05/23 01:23:01;;;;;;;32.22;25.92;;;14.00;99.90;;;;;;5084980;28;20039;-71
2023/05/23 01:25:35;;;;;;;30.40;26.05;;;14.00;99.90;;;;;;5051571;28;20051;-71
2023/05/23 01:28:04;;;;;;;28.73;25.02;;;14.00;99.90;;;;;;5095733;28;20040;-72
2023/05/23 01:30:34;;;;;;;26.55;23.65;;;13.90;99.90;;;;;;5101963;28;20027;-72
2023/05/23 01:33:00;;;;;;;26.85;23.55;;;13.90;99.90;;;;;;5093690;28;20123;-71
2023/05/23 01:35:27;;;;;;;27.10;21.95;;;13.90;99.90;;;;;;5116400;27;20044;-71
2023/05/23 01:37:53;;;;;;;21.88;19.48;;;13.90;99.90;;;;;;5083308;28;20055;-72
2023/05/23 01:40:20;;;;;;;23.65;19.20;;;13.80;99.90;;;;;;5100332;28;20051;-72
2023/05/23 01:42:46;;;;;;;20.80;18.40;;;13.90;99.90;;;;;;5062982;28;20035;-72
2023/05/23 01:45:13;;;;;;;22.23;18.45;;;13.90;99.90;;;;;;5095040;28;20096;-72
2023/05/23 01:47:40;;;;;;;25.02;21.02;;;13.90;99.90;;;;;;5133945;27;20617;-71
2023/05/23 01:50:08;;;;;;;25.20;17.30;;;13.80;99.90;;;;;;5102070;28;20072;-72
2023/05/23 01:52:34;;;;;;;26.55;18.35;;;13.80;99.90;;;;;;5115270;27;20764;-71
2023/05/23 01:55:01;;;;;;;33.75;20.17;;;13.70;99.90;;;;;;5102049;28;20050;-71
2023/05/23 01:57:32;;;;;;;24.27;17.83;;;13.70;99.90;;;;;;5098069;28;20048;-71
2023/05/23 01:59:57;;;;;;;;;;;13.70;99.90;;;;;;5065952;28;20054;-72
2023/05/23 02:02:31;;;;;;;24.75;18.65;;;13.70;99.90;;;;;;5091969;27;20358;-72
2023/05/23 02:05:06;;;;;;;27.55;17.92;;;13.60;99.90;;;;;;5088483;28;20046;-72
2023/05/23 02:07:32;;;;;;;28.63;18.73;;;13.50;99.90;;;;;;5095701;28;20044;-72
2023/05/23 02:09:58;;;;;;;33.88;21.10;;;13.50;99.90;;;;;;5134628;27;20097;-72
2023/05/23 02:12:24;;;;;;;29.92;20.17;;;13.50;99.90;;;;;;5126583;27;20072;-71
2023/05/23 02:14:52;;;;;;;26.98;17.67;;;13.50;99.90;;;;;;5103721;27;20072;-72
2023/05/23 02:17:18;;;;;;;30.85;19.02;;;13.40;99.90;;;;;;5098159;28;20040;-72
2023/05/23 02:19:44;;;;;;;29.02;19.33;;;13.40;99.90;;;;;;5075679;28;20127;-71
2023/05/23 02:22:09;;;;;;;32.80;19.10;;;13.40;99.90;;;;;;5081062;28;20061;-72
2023/05/23 02:24:35;;;;;;;27.95;18.40;;;13.40;99.90;;;;;;5096700;27;20511;-71
2023/05/23 02:27:01;;;;;;;31.27;19.77;;;13.30;99.90;;;;;;5086726;28;20123;-71
2023/05/23 02:29:27;;;;;;;29.50;19.33;;;13.30;99.90;;;;;;5105673;27;20064;-72
2023/05/23 02:31:53;;;;;;;31.92;19.05;;;13.20;99.90;;;;;;5087042;28;20474;-72
2023/05/23 02:34:18;;;;;;;28.90;19.27;;;13.20;99.90;;;;;;5093153;28;20036;-72
2023/05/23 02:36:44;;;;;;;35.80;20.35;;;13.20;99.90;;;;;;5109619;27;20077;-72
2023/05/23 02:39:10;;;;;;;26.10;16.13;;;13.10;99.90;;;;;;5072716;28;20084;-72
2023/05/23 02:41:36;;;;;;;25.42;15.25;;;13.10;99.90;;;;;;5100814;27;20036;-71
2023/05/23 02:44:02;;;;;;;23.02;14.57;;;13.10;99.90;;;;;;5086962;28;20048;-71
2023/05/23 02:46:27;;;;;;;25.83;16.10;;;13.00;99.90;;;;;;5070946;28;20042;-71
2023/05/23 02:48:53;;;;;;;24.48;16.75;;;13.00;99.90;;;;;;5093622;28;20047;-71
2023/05/23 02:51:19;;;;;;;27.35;18.75;;;13.00;99.90;;;;;;5056330;28;20149;-71
2023/05/23 02:53:45;;;;;;;25.63;17.10;;;13.00;99.90;;;;;;5088276;28;20414;-71
2023/05/23 02:56:14;;;;;;;32.35;17.73;;;13.00;99.90;;;;;;5080913;28;20075;-71
2023/05/23 02:58:41;;;;;;;32.03;16.40;;;12.90;99.90;;;;;;5069816;28;20043;-71
2023/05/23 03:01:07;;;;;;;30.90;16.00;;;12.90;99.90;;;;;;5091951;28;20104;-72
2023/05/23 03:03:36;;;;;;;25.30;15.15;;;12.90;99.90;;;;;;5104161;27;20032;-71
2023/05/23 03:06:03;;;;;;;28.65;14.77;;;12.90;99.90;;;;;;5098075;28;20418;-72
2023/05/23 03:08:29;;;;;;;24.83;14.23;;;12.80;99.90;;;;;;5097646;28;20052;-72
2023/05/23 03:10:55;;;;;;;26.50;13.85;;;12.80;99.90;;;;;;5073224;28;20047;-72
2023/05/23 03:13:21;;;;;;;30.30;14.57;;;12.80;99.90;;;;;;5121143;27;20039;-71
2023/05/23 03:15:47;;;;;;;33.65;14.48;;;12.80;99.90;;;;;;5120226;27;20069;-71
2023/05/23 03:18:15;;;;;;;23.73;13.30;;;12.70;99.90;;;;;;5073797;28;20044;-72
2023/05/23 03:20:41;;;;;;;23.08;12.27;;;12.70;99.90;;;;;;5076960;28;20112;-71
2023/05/23 03:23:09;;;;;;;25.15;13.32;;;12.70;99.90;;;;;;5107247;27;20660;-71
2023/05/23 03:25:35;;;;;;;27.48;13.07;;;12.70;99.90;;;;;;5081152;28;20063;-71
2023/05/23 03:28:01;;;;;;;29.20;13.50;;;12.70;99.90;;;;;;5096818;28;20133;-72
2023/05/23 03:30:26;;;;;;;30.15;15.13;;;12.60;99.90;;;;;;5129223;27;20046;-71
2023/05/23 03:32:52;;;;;;;25.73;13.07;;;12.60;99.90;;;;;;5085343;28;20648;-71
2023/05/23 03:35:18;;;;;;;24.90;13.13;;;12.60;99.90;;;;;;5097546;28;20128;-72
2023/05/23 03:37:44;;;;;;;28.42;14.07;;;12.60;99.90;;;;;;5097795;28;20169;-72
2023/05/23 03:40:10;;;;;;;26.38;13.82;;;12.60;99.90;;;;;;5101348;28;20486;-71
2023/05/23 03:42:38;;;;;;;27.75;13.25;;;12.60;99.90;;;;;;5078466;27;20043;-72
2023/05/23 03:45:05;;;;;;;26.13;13.32;;;12.60;99.90;;;;;;5080944;28;20051;-71
2023/05/23 03:47:33;;;;;;;23.80;12.18;;;12.60;99.90;;;;;;5108535;28;20119;-71
2023/05/23 03:49:59;;;;;;;26.10;13.45;;;12.60;99.90;;;;;;5097034;28;20052;-71
2023/05/23 03:52:25;;;;;;;24.75;12.95;;;12.60;99.90;;;;;;5089558;28;20063;-72
2023/05/23 03:54:54;;;;;;;23.80;12.27;;;12.50;99.90;;;;;;5094276;28;20071;-72
2023/05/23 03:57:20;;;;;;;24.42;12.93;;;12.50;99.90;;;;;;5091251;28;20048;-72
2023/05/23 03:59:45;;;;;;;23.55;12.55;;;12.50;99.90;;;;;;5072747;28;20063;-71
2023/05/23 04:02:11;;;;;;;19.85;11.45;;;12.50;99.90;;;;;;5076165;28;20043;-72
2023/05/23 04:04:38;;;;;;;25.33;11.98;;;12.50;99.90;;;;;;5094272;28;20097;-71
2023/05/23 04:07:04;;;;;;;21.77;10.95;;;12.50;99.90;;;;;;5095233;28;20517;-71
2023/05/23 04:09:30;;;;;;;19.85;12.20;;;12.50;99.90;;;;;;5088950;28;20040;-71
2023/05/23 04:11:57;;;;;;;25.58;11.38;;;12.50;99.90;;;;;;5121826;27;20100;-72
2023/05/23 04:14:23;;;;;;;19.38;10.23;;;12.50;99.90;;;;;;5099783;28;20571;-72
2023/05/23 04:16:48;;;;;;;20.48;10.50;;;12.50;99.90;;;;;;5113590;27;20035;-72
2023/05/23 04:19:15;;;;;;;22.95;10.18;;;12.50;99.90;;;;;;5081196;28;20039;-72
2023/05/23 04:21:40;;;;;;;19.80;9.93;;;12.50;99.90;;;;;;5095282;27;20045;-72
2023/05/23 04:24:07;;;;;;;19.10;9.40;;;12.50;99.90;;;;;;5113244;27;20109;-72
2023/05/23 04:26:35;;;;;;;16.88;8.60;;;12.50;99.90;;;;;;5085963;28;20086;-72
2023/05/23 04:29:02;;;;;;;18.05;8.73;;;12.50;99.90;;;;;;5065462;28;20495;-73
2023/05/23 04:31:28;;;;;;;18.48;8.40;;;12.40;99.90;;;;;;5136426;27;20072;-72
2023/05/23 04:33:53;;;;;;;18.92;8.77;;;12.40;99.90;;;;;;5102463;28;20087;-72
2023/05/23 04:36:22;;;;;;;19.60;9.10;;;12.40;99.90;;;;;;5099347;28;20044;-72
2023/05/23 04:38:48;;;;;;;19.13;8.82;;;12.40;99.90;;;;;;5090991;28;20047;-72
2023/05/23 04:41:15;;;;;;;20.15;8.55;;;12.40;99.90;;;;;;5101540;27;20048;-72
2023/05/23 04:43:41;;;;;;;19.98;9.85;;;12.40;99.90;;;;;;5089888;28;20112;-72
2023/05/23 04:46:12;;;;;;;16.27;9.18;;;12.30;99.90;;;;;;5120694;27;20044;-72
2023/05/23 04:48:38;;;;;;;20.88;9.05;;;12.30;99.90;;;;;;5117157;27;20040;-72
2023/05/23 04:51:07;;;;;;;20.25;9.60;;;12.30;99.90;;;;;;5121048;27;20726;-72
2023/05/23 04:53:35;;;;;;;19.52;9.07;;;12.30;99.90;;;;;;5080089;28;20036;-73
2023/05/23 04:56:01;;;;;;;16.77;8.73;;;12.20;99.90;;;;;;5079976;28;21294;-72
2023/05/23 04:58:27;;;;;;;22.02;9.05;;;12.20;99.90;;;;;;5098133;28;20044;-72
2023/05/23 05:00:53;;;;;;;18.35;7.88;;;12.20;99.90;;;;;;5101020;28;20051;-72
2023/05/23 05:03:19;;;;;;;16.38;8.43;;;12.10;99.90;;;;;;5099266;28;20035;-72
2023/05/23 05:05:44;;;;;;;15.00;7.68;;;12.10;99.90;;;;;;5121056;27;20070;-72
2023/05/23 05:08:13;;;;;;;18.05;7.30;;;12.20;99.90;;;;;;5100321;28;20039;-72
2023/05/23 05:10:40;;;;;;;16.33;7.28;;;12.20;99.90;;;;;;5098312;28;20043;-72
2023/05/23 05:13:06;;;;;;;19.73;7.25;;;12.10;99.90;;;;;;5114340;27;20498;-73
2023/05/23 05:15:32;;;;;;;20.30;8.02;;;12.10;99.90;;;;;;5070603;28;20043;-73
2023/05/23 05:17:58;;;;;;;19.35;8.35;;;12.10;99.90;;;;;;5053205;28;20090;-72
2023/05/23 05:20:24;;;;;;;16.15;7.88;;;12.10;99.90;;;;;;5102962;28;20035;-72
2023/05/23 05:22:58;;;;;;;19.20;9.32;;;12.10;99.90;;;;;;5054570;28;20135;-72
2023/05/23 05:25:24;;;;;;;19.20;9.88;;;12.10;99.90;;;;;;5120178;27;20058;-72
2023/05/23 05:27:49;;;;;;;20.95;10.52;;;12.10;99.90;;;;;;5095015;28;20491;-72
2023/05/23 05:30:15;;;;;;;22.15;11.10;;;12.00;99.90;;;;;;5068737;28;20122;-73
2023/05/23 05:32:44;;;;;;;25.38;10.80;;;12.00;99.90;;;;;;5067003;28;20039;-72
2023/05/23 05:35:12;;;;;;;25.02;12.00;;;12.00;99.90;;;;;;5091811;28;20056;-72
2023/05/23 05:37:39;;;;;;;22.92;10.80;;;11.90;99.90;;;;;;5070863;28;20032;-73
2023/05/23 05:40:07;;;;;;;24.45;11.43;;;11.80;99.90;;;;;;5064172;28;20051;-73
2023/05/23 05:42:33;;;;;;;20.55;10.23;;;11.80;99.90;;;;;;5068181;28;20040;-72
2023/05/23 05:45:02;;;;;;;19.65;9.98;;;11.70;99.90;;;;;;5074214;28;20455;-73
2023/05/23 05:47:28;;;;;;;22.33;10.95;;;11.70;99.90;;;;;;5101659;28;20100;-73
2023/05/23 05:49:53;;;;;;;20.35;9.90;;;11.70;99.90;;;;;;5079601;28;20499;-74
2023/05/23 05:52:19;;;;;;;21.52;9.82;;;11.70;99.90;;;;;;5063811;28;20039;-75
2023/05/23 05:54:45;;;;;;;17.38;9.57;;;11.60;99.90;;;;;;5083854;28;20089;-75
2023/05/23 05:57:11;;;;;;;17.33;9.00;;;11.60;99.90;;;;;;5117658;27;20051;-75
2023/05/23 05:59:36;;;;;;;20.33;9.23;;;11.70;99.90;;;;;;5052763;28;20601;-74
2023/05/23 06:02:02;;;;;;;16.17;8.63;;;11.60;99.90;;;;;;5082810;28;20036;-74
2023/05/23 06:04:28;;;;;;;20.35;10.07;;;11.70;99.90;;;;;;5103538;28;20058;-74
2023/05/23 06:06:54;;;;;;;17.40;8.35;;;11.60;99.90;;;;;;5050429;28;20075;-74
2023/05/23 06:09:19;;;;;;;15.57;7.82;;;11.60;99.90;;;;;;5068095;28;20035;-75
2023/05/23 06:11:45;;;;;;;16.63;8.45;;;11.60;99.90;;;;;;5082547;28;20035;-75
2023/05/23 06:14:11;;;;;;;15.90;7.90;;;11.60;99.90;;;;;;5068506;28;20061;-74
2023/05/23 06:16:37;;;;;;;19.27;8.45;;;11.60;99.90;;;;;;5079792;28;20119;-74
2023/05/23 06:19:02;;;;;;;19.95;8.02;;;11.60;99.90;;;;;;5103062;28;20036;-75
2023/05/23 06:21:31;;;;;;;17.73;7.75;;;11.60;99.90;;;;;;5082636;28;20139;-75
2023/05/23 06:23:57;;;;;;;16.60;7.57;;;11.50;99.90;;;;;;5102679;27;20555;-74
2023/05/23 06:26:23;;;;;;;18.25;7.90;;;11.50;99.90;;;;;;5114469;27;20051;-75
2023/05/23 06:28:49;;;;;;;16.45;8.10;;;11.50;99.90;;;;;;5100284;28;20077;-74
2023/05/23 06:31:14;;;;;;;12.40;5.88;;;11.50;99.90;;;;;;5096211;28;20071;-73
2023/05/23 06:33:41;;;;;;;14.85;6.68;;;11.50;99.90;;;;;;5098474;28;20052;-72
2023/05/23 06:36:07;;;;;;;14.65;6.65;;;11.50;99.90;;;;;;5082950;28;20049;-73
2023/05/23 06:38:33;;;;;;;14.35;5.70;;;11.50;99.90;;;;;;5093036;28;20044;-73
2023/05/23 06:40:59;;;;;;;14.75;6.32;;;11.50;99.90;;;;;;5100382;27;20620;-73
2023/05/23 06:43:25;;;;;;;15.25;6.05;;;11.50;99.90;;;;;;5100326;28;20047;-74
2023/05/23 06:45:53;;;;;;;20.60;5.75;;;11.50;99.90;;;;;;5095509;28;20040;-73
2023/05/23 06:48:19;;;;;;;12.80;6.18;;;11.60;99.90;;;;;;5065355;28;20039;-73
2023/05/23 06:50:45;;;;;;;15.07;4.93;;;11.60;99.90;;;;;;5094918;28;20547;-73
2023/05/23 06:53:11;;;;;;;11.65;5.30;;;11.60;99.90;;;;;;5081508;28;20112;-73
2023/05/23 06:55:36;;;;;;;12.85;5.43;;;11.60;99.90;;;;;;5135795;27;20044;-74
2023/05/23 06:58:05;;;;;;;12.52;5.30;;;11.60;99.90;;;;;;5081894;28;20032;-74
2023/05/23 07:00:30;;;;;;;13.85;5.05;;;11.60;99.90;;;;;;5113037;27;20509;-73
2023/05/23 07:03:00;;;;;;;12.70;4.40;;;11.70;99.90;;;;;;5099164;28;20048;-73
2023/05/23 07:05:27;;;;;;;17.05;5.40;;;11.70;99.90;;;;;;5095949;28;20562;-74
2023/05/23 07:07:53;;;;;;;15.32;4.43;;;11.80;99.90;;;;;;5099992;28;20032;-73
2023/05/23 07:10:19;;;;;;;15.20;4.60;;;12.00;99.90;;;;;;5085728;28;20047;-73
2023/05/23 07:12:45;;;;;;;17.58;5.22;;;12.00;99.90;;;;;;5086246;28;20036;-73
2023/05/23 07:15:12;;;;;;;13.77;4.60;;;12.10;99.90;;;;;;5087278;28;20489;-74
2023/05/23 07:17:38;;;;;;;17.67;5.43;;;12.20;99.90;;;;;;5081436;28;20055;-74
2023/05/23 07:20:04;;;;;;;15.88;5.07;;;12.20;99.90;;;;;;5089195;28;20051;-74
2023/05/23 07:22:30;;;;;;;16.90;5.10;;;12.10;99.90;;;;;;5087082;28;20051;-75
2023/05/23 07:24:56;;;;;;;17.05;5.55;;;12.10;99.90;;;;;;5091644;28;20559;-74
2023/05/23 07:27:22;;;;;;;18.50;5.90;;;12.10;99.90;;;;;;5054429;28;20039;-74
2023/05/23 07:29:47;;;;;;;20.35;5.80;;;12.10;99.90;;;;;;5069499;28;20032;-74
2023/05/23 07:32:13;;;;;;;14.60;4.63;;;12.00;99.90;;;;;;5089904;28;20051;-74
2023/05/23 07:34:40;;;;;;;18.45;5.60;;;12.10;99.90;;;;;;5085253;28;20043;-74
2023/05/23 07:37:05;;;;;;;16.73;5.35;;;12.10;99.90;;;;;;5087188;28;20126;-74
2023/05/23 07:39:31;;;;;;;20.40;5.47;;;12.20;99.90;;;;;;5103540;28;20337;-74
2023/05/23 07:41:57;;;;;;;16.00;4.60;;;12.20;99.90;;;;;;5106285;28;20058;-73
2023/05/23 07:44:22;;;;;;;16.40;4.85;;;12.10;99.90;;;;;;5066600;28;20032;-73
2023/05/23 07:46:48;;;;;;;20.50;4.80;;;12.10;99.90;;;;;;5104535;27;20171;-74
2023/05/23 07:49:14;;;;;;;18.25;4.80;;;12.10;99.90;;;;;;5086693;28;20036;-74
2023/05/23 07:51:40;;;;;;;20.65;5.35;;;12.10;99.90;;;;;;5098802;28;20393;-73
2023/05/23 07:54:06;;;;;;;17.25;4.82;;;12.00;99.90;;;;;;5087516;28;20505;-73
2023/05/23 07:56:32;;;;;;;17.20;5.57;;;12.00;99.90;;;;;;5088133;28;20051;-73
2023/05/23 07:58:58;;;;;;;17.65;5.20;;;12.00;99.90;;;;;;5088032;28;20053;-74
2023/05/23 08:01:27;;;;;;;15.35;4.88;;;12.00;99.90;;;;;;5069054;28;20300;-75
2023/05/23 08:03:53;;;;;;;17.02;4.43;;;12.00;99.90;;;;;;5087147;28;20380;-73
2023/05/23 08:06:18;;;;;;;20.52;5.10;;;12.10;99.90;;;;;;5087612;28;20150;-73
2023/05/23 08:08:44;;;;;;;19.30;5.40;;;12.10;99.90;;;;;;5085451;28;20032;-74
2023/05/23 08:11:10;;;;;;;17.20;4.45;;;12.10;99.90;;;;;;5089104;28;20562;-73
2023/05/23 08:13:35;;;;;;;23.27;4.60;;;12.20;99.90;;;;;;5066225;28;20445;-74
2023/05/23 08:16:01;;;;;;;18.05;4.78;;;12.20;99.90;;;;;;5068562;28;20043;-74
2023/05/23 08:18:29;;;;;;;18.90;5.07;;;12.40;99.90;;;;;;5102930;28;20043;-73
2023/05/23 08:20:55;;;;;;;17.23;4.32;;;12.50;99.90;;;;;;5089379;28;20047;-73
2023/05/23 08:23:24;;;;;;;20.25;5.97;;;12.50;99.90;;;;;;5099454;28;20398;-73
2023/05/23 08:25:50;;;;;;;17.45;4.80;;;12.60;99.90;;;;;;5069747;28;20039;-73
2023/05/23 08:28:16;;;;;;;15.32;5.18;;;12.50;99.90;;;;;;5085913;28;20040;-73
2023/05/23 08:30:42;;;;;;;15.73;4.32;;;12.50;99.90;;;;;;5089191;28;20437;-73
2023/05/23 08:33:08;;;;;;;16.70;4.90;;;12.50;99.90;;;;;;5101153;27;20051;-73
2023/05/23 08:35:35;;;;;;;17.13;4.82;;;12.60;99.90;;;;;;5085193;28;20039;-74
2023/05/23 08:38:10;;;;;;;16.23;4.10;;;12.70;99.90;;;;;;5086981;28;20119;-75
2023/05/23 08:40:38;;;;;;;17.33;4.57;;;12.80;99.90;;;;;;5083434;28;20036;-74
2023/05/23 08:43:04;;;;;;;16.10;4.45;;;12.90;99.90;;;;;;5084522;28;20077;-74
2023/05/23 08:45:33;;;;;;;14.45;4.45;;;13.00;99.90;;;;;;5067556;28;20044;-74
2023/05/23 08:48:00;;;;;;;17.30;5.87;;;13.00;99.90;;;;;;5067547;28;20043;-73
2023/05/23 08:50:29;;;;;;;16.60;4.50;;;13.00;99.90;;;;;;5084509;28;20404;-73
2023/05/23 08:53:01;;;;;;;17.55;4.93;;;13.00;99.90;;;;;;5101998;28;20043;-73
2023/05/23 08:55:28;;;;;;;20.55;4.97;;;13.00;99.90;;;;;;5087371;28;20074;-73
2023/05/23 08:57:56;;;;;;;16.88;4.57;;;13.00;99.90;;;;;;5102573;28;20087;-74
2023/05/23 09:00:24;;;;;;;14.70;5.25;;;13.40;99.90;;;;;;5083863;28;20110;-73
2023/05/23 09:02:53;;;;;;;15.13;4.55;;;13.60;99.90;;;;;;5083584;28;20048;-77
2023/05/23 09:05:19;;;;;;;15.82;4.97;;;13.80;99.90;;;;;;5119884;27;20044;-75
2023/05/23 09:07:52;;;;;;;15.45;5.30;;;14.00;99.90;;;;;;5087867;28;20043;-75
2023/05/23 09:10:21;;;;;;;17.35;5.50;;;14.10;99.90;;;;;;5086463;28;20054;-75
2023/05/23 09:12:47;;;;;;;17.45;4.80;;;14.00;99.90;;;;;;5080501;28;20067;-75
2023/05/23 09:15:13;;;;;;;15.55;4.95;;;13.90;99.90;;;;;;5088709;28;20361;-76
2023/05/23 09:17:39;;;;;;;15.57;5.35;;;13.80;99.90;;;;;;5099248;28;20080;-75
2023/05/23 09:20:13;;;;;;;14.98;4.95;;;13.70;99.90;;;;;;5086916;27;20058;-75
2023/05/23 09:22:40;;;;;;;15.50;4.93;;;13.60;99.90;;;;;;5100123;28;20056;-75
2023/05/23 09:25:06;;;;;;;16.70;4.38;;;13.60;99.90;;;;;;5103118;28;20047;-75
2023/05/23 09:27:33;;;;;;;13.80;4.28;;;13.70;99.90;;;;;;5086237;28;20044;-76
2023/05/23 09:30:10;;;;;;;13.90;4.25;;;13.70;99.90;;;;;;5087604;28;20040;-75
2023/05/23 09:32:36;;;;;;;15.23;5.07;;;13.80;99.90;;;;;;5099570;28;20035;-75
2023/05/23 09:35:07;;;;;;;15.40;4.25;;;14.00;99.90;;;;;;5100057;28;20176;-75
2023/05/23 09:37:44;;;;;;;15.90;5.07;;;14.10;99.90;;;;;;5120854;27;20047;-75
2023/05/23 09:40:12;;;;;;;14.75;4.72;;;14.30;99.90;;;;;;5087562;28;20081;-75
2023/05/23 09:42:43;;;;;;;14.98;4.50;;;14.40;99.90;;;;;;5079181;28;20044;-78
2023/05/23 09:45:09;;;;;;;14.35;4.82;;;14.50;99.90;;;;;;5115759;27;20047;-75
2023/05/23 09:47:35;;;;;;;12.20;4.20;;;14.70;99.90;;;;;;5099777;28;20040;-76
2023/05/23 09:50:02;;;;;;;16.08;4.95;;;14.70;99.90;;;;;;5103281;27;20048;-75
2023/05/23 09:52:37;;;;;;;15.38;4.75;;;14.80;99.90;;;;;;5099592;28;20081;-75
2023/05/23 09:55:03;;;;;;;15.10;4.50;;;14.70;99.90;;;;;;5086634;28;20048;-75
2023/05/23 09:57:30;;;;;;;17.27;5.45;;;14.70;99.90;;;;;;5085259;28;20063;-76
2023/05/23 10:00:00;;;;;;;11.95;4.45;;;14.60;99.90;;;;;;5102167;28;20405;-74
2023/05/23 10:02:53;;;;;;;14.10;4.30;;;14.60;99.90;;;;;;5103327;27;20046;-74
2023/05/23 10:05:43;;;;;;;15.18;4.38;;;14.50;99.90;;;;;;5082654;28;20051;-73
2023/05/23 10:08:14;;;;;;;12.65;3.95;;;14.50;99.90;;;;;;5083033;28;20062;-73
2023/05/23 10:10:55;;;;;;;11.27;3.78;;;14.70;99.90;;;;;;5086433;28;20084;-73
2023/05/23 10:13:25;;;;;;;15.93;4.22;;;14.90;99.90;;;;;;5083615;28;20050;-74
2023/05/23 10:16:13;;;;;;;13.80;4.07;;;14.90;99.90;;;;;;5085252;28;20082;-74
2023/05/23 10:18:43;;;;;;;15.23;4.18;;;14.80;99.90;;;;;;5082722;28;20432;-73
2023/05/23 10:21:23;;;;;;;14.15;4.25;;;14.90;99.90;;;;;;5087737;28;20433;-74
2023/05/23 10:23:49;;;;;;;14.73;4.10;;;15.00;99.90;;;;;;5086990;28;20047;-73
2023/05/23 10:26:17;;;;;;;17.27;5.18;;;14.80;99.90;;;;;;5069501;28;20513;-73
2023/05/23 10:28:45;;;;;;;12.43;3.83;;;14.90;99.90;;;;;;5086531;28;20502;-74
2023/05/23 10:31:11;;;;;;;12.95;3.70;;;15.00;99.90;;;;;;5101903;27;20213;-74
2023/05/23 10:33:45;;;;;;;16.02;3.75;;;15.10;99.70;;;;;;5085040;28;20510;-74
2023/05/23 10:36:21;;;;;;;13.95;4.78;;;15.10;99.10;;;;;;5084634;28;20746;-73
2023/05/23 10:38:59;;;;;;;21.33;4.32;;;15.00;99.00;;;;;;5098576;28;20051;-74
2023/05/23 10:41:32;;;;;;;13.75;4.50;;;14.90;99.90;;;;;;5114764;27;20047;-74
2023/05/23 10:44:17;;;;;;;12.55;3.80;;;15.00;99.90;;;;;;5114751;27;20514;-73
2023/05/23 10:47:00;;;;;;;17.50;3.83;;;15.10;99.90;;;;;;5083381;28;20046;-73
2023/05/23 10:49:39;;;;;;;14.40;3.67;;;15.30;99.90;;;;;;5100262;27;20058;-73
2023/05/23 10:52:06;;;;;;;13.65;4.10;;;15.50;99.90;;;;;;5079419;28;20055;-77
2023/05/23 10:54:43;;;;;;;14.30;4.72;;;15.50;96.70;;;;;;5086556;28;20085;-75
2023/05/23 10:57:11;;;;;;;12.88;3.53;;;15.40;97.50;;;;;;5131206;27;20044;-74
2023/05/23 10:59:38;;;;;;;17.50;4.10;;;15.30;97.40;;;;;;5101777;28;20058;-74
2023/05/23 11:02:14;;;;;;;16.23;3.53;;;15.10;97.70;;;;;;5114126;27;20070;-72
2023/05/23 11:04:41;;;;;;;14.27;3.80;;;15.00;97.10;;;;;;5082536;28;20135;-74
2023/05/23 11:07:30;;;;;;;17.20;4.38;;;15.00;96.80;;;;;;5117871;27;20047;-73
2023/05/23 11:10:10;;;;;;;12.80;3.30;;;15.10;97.80;;;;;;5096531;28;20115;-76
2023/05/23 11:12:45;;;;;;;11.30;3.58;;;15.30;96.20;;;;;;5082053;28;20282;-72
2023/05/23 11:15:17;;;;;;;13.07;3.38;;;15.40;97.30;;;;;;5100660;28;20299;-73
2023/05/23 11:18:10;;;;;;;12.45;3.40;;;15.30;96.40;;;;;;5081142;28;20047;-74
2023/05/23 11:20:37;;;;;;;13.80;3.83;;;15.10;94.70;;;;;;5121206;27;20086;-73
2023/05/23 11:23:07;;;;;;;12.43;3.70;;;15.00;94.30;;;;;;5097181;28;20399;-74
2023/05/23 11:25:44;;;;;;;16.77;4.18;;;15.00;95.80;;;;;;5119171;28;20047;-74
2023/05/23 11:28:11;;;;;;;14.25;4.60;;;14.90;95.50;;;;;;5067013;28;20035;-75
2023/05/23 11:30:37;;;;;;;15.80;3.63;;;14.80;95.70;;;;;;5068745;28;20098;-74
2023/05/23 11:33:12;;;;;;;10.85;3.95;;;14.70;95.90;;;;;;5133328;27;20116;-73
2023/05/23 11:35:39;;;;;;;12.93;3.38;;;14.60;96.00;;;;;;5083142;28;20153;-73
2023/05/23 11:38:05;;;;;;;15.80;4.03;;;14.50;96.20;;;;;;5081616;28;20048;-73
2023/05/23 11:40:35;;;;;;;13.52;4.30;;;14.50;97.80;;;;;;5066716;28;20059;-74
2023/05/23 11:43:06;;;;;;;14.82;3.95;;;14.50;98.90;;;;;;5132931;27;20108;-74
2023/05/23 11:45:33;;;;;;;16.50;4.30;;;14.50;98.60;;;;;;5067819;28;20036;-73
2023/05/23 11:48:04;;;;;;;13.95;4.13;;;14.50;98.50;;;;;;5134531;27;20119;-73
2023/05/23 11:50:30;;;;;;;11.55;3.88;;;14.40;98.20;;;;;;5096592;28;20609;-73
2023/05/23 11:52:56;;;;;;;13.88;3.90;;;14.40;99.20;;;;;;5081017;28;20118;-74
2023/05/23 11:55:22;;;;;;;16.25;4.57;;;14.40;98.60;;;;;;5098302;28;20043;-74
2023/05/23 11:57:54;;;;;;;11.93;3.85;;;14.50;97.00;;;;;;5135145;27;20063;-74
2023/05/23 12:00:23;;;;;;;11.55;3.65;;;14.40;96.80;;;;;;5100534;28;20039;-74
2023/05/23 12:02:49;;;;;;;11.23;3.20;;;14.40;97.30;;;;;;5088522;28;20088;-73
2023/05/23 12:05:15;;;;;;;12.25;3.40;;;14.50;95.70;;;;;;5070387;28;20047;-74
2023/05/23 12:07:48;;;;;;;14.10;3.97;;;14.50;96.20;;;;;;5087035;28;20527;-74
2023/05/23 12:10:20;;;;;;;14.85;3.97;;;14.60;96.60;;;;;;5137243;27;20120;-73
2023/05/23 12:12:46;;;;;;;15.43;3.83;;;14.80;96.70;;;;;;5084600;28;20130;-75
2023/05/23 12:15:12;;;;;;;14.38;4.15;;;14.80;96.00;;;;;;5104302;28;20119;-73
2023/05/23 12:17:42;;;;;;;13.00;3.55;;;14.70;97.10;;;;;;5085453;28;20044;-73
2023/05/23 12:20:11;;;;;;;13.20;3.80;;;14.70;97.70;;;;;;5087719;28;20158;-74
2023/05/23 12:22:37;;;;;;;14.50;4.15;;;14.80;99.10;;;;;;5071396;28;20581;-74
2023/05/23 12:25:07;;;;;;;14.55;3.65;;;15.10;99.70;;;;;;5100790;27;20081;-74
2023/05/23 12:27:35;;;;;;;17.20;3.95;;;15.40;99.60;;;;;;5103426;28;20533;-74
2023/05/23 12:30:13;;;;;;;17.17;3.53;;;15.70;96.50;;;;;;5136905;27;20498;-73
2023/05/23 12:32:40;;;;;;;14.55;3.70;;;15.70;94.50;;;;;;5102366;28;20052;-75
2023/05/23 12:35:14;;;;;;;15.63;4.88;;;15.50;95.20;;;;;;5136263;27;20295;-73
2023/05/23 12:37:44;;;;;;;9.13;3.05;;;15.40;96.00;;;;;;5101502;28;20035;-73